Smithton, Australia
Current Conditions -  °F | °C
As of 3:30 AM on Sunday 21 Dec 2014 (Local Time) from YMLT Reporting Station
Broken Clouds Broken Clouds  
Wind Chill: 54°   Ceiling: 3200
Heat Index: 54°   Visibility: 6mi
Dew Point: 48°   Wind: 1mph
Humidity: 82%   Direction: 240°WSW
Pressure: 29.94"   Gusts: NA
Location:  40.84°S, 145.12°E
Report Text: YMLT 201630Z AUTO 24001KT 9999 // SCT028 BKN032 12/09 Q1014
Loading
Personal Weather Stations






























Interactive Weather Map New forecast layout! Learn more

10-Day Weather Forecast

Advertisements
Track Severe Weather on mobile